createdAt,value
2022-08-18T00:01:54.657Z,84.03
2022-08-18T00:04:35.497Z,84.32
2022-08-18T00:07:06.824Z,84.72
2022-08-18T00:09:36.978Z,84.86
2022-08-18T00:12:09.159Z,85.54
2022-08-18T00:14:37.299Z,85.87
2022-08-18T00:17:05.725Z,85.39
2022-08-18T00:19:46.990Z,85.37
2022-08-18T00:22:20.902Z,85.18
2022-08-18T00:24:51.032Z,84.96
2022-08-18T00:27:23.216Z,85.18
2022-08-18T00:29:53.578Z,85.20
2022-08-18T00:32:24.519Z,85.54
2022-08-18T00:34:53.566Z,85.60
2022-08-18T00:37:25.281Z,85.37
2022-08-18T00:39:54.010Z,85.06
2022-08-18T00:42:27.425Z,85.19
2022-08-18T00:45:00.899Z,85.80
2022-08-18T00:47:41.024Z,86.78
2022-08-18T00:50:14.852Z,87.10
2022-08-18T00:52:49.077Z,86.70
2022-08-18T00:55:18.410Z,87.00
2022-08-18T00:57:49.814Z,87.13
2022-08-18T01:00:18.299Z,87.72
2022-08-18T01:02:52.173Z,87.08
2022-08-18T01:05:25.649Z,87.08
2022-08-18T01:07:55.255Z,87.16
2022-08-18T01:10:24.658Z,87.73
2022-08-18T01:12:58.551Z,88.01
2022-08-18T01:15:30.461Z,88.67
2022-08-18T01:18:17.714Z,89.22
2022-08-18T01:21:10.409Z,88.54
2022-08-18T01:23:40.937Z,88.60
2022-08-18T01:26:09.566Z,88.64
2022-08-18T01:28:40.260Z,89.40
2022-08-18T01:31:09.878Z,89.58
2022-08-18T01:33:42.255Z,90.26
2022-08-18T01:36:14.608Z,89.97
2022-08-18T01:38:45.082Z,90.01
2022-08-18T01:41:25.960Z,89.86
2022-08-18T01:43:57.285Z,90.20
2022-08-18T01:46:25.869Z,91.02
2022-08-18T01:48:53.925Z,91.20
2022-08-18T01:51:38.901Z,90.88
2022-08-18T01:54:11.608Z,90.72
2022-08-18T01:56:40.959Z,90.66
2022-08-18T01:59:10.504Z,90.81
2022-08-18T02:01:48.487Z,91.05
2022-08-18T02:04:36.941Z,91.08
2022-08-18T02:07:08.735Z,91.10
2022-08-18T02:09:39.538Z,91.01
2022-08-18T02:12:09.166Z,90.41
2022-08-18T02:14:38.055Z,90.20
2022-08-18T02:17:08.995Z,90.10
2022-08-18T02:19:39.782Z,90.89
2022-08-18T02:22:09.450Z,91.39
2022-08-18T02:24:39.372Z,91.47
2022-08-18T02:27:08.667Z,91.57
2022-08-18T02:29:38.146Z,91.83
2022-08-18T02:32:07.775Z,91.80
2022-08-18T02:34:35.847Z,91.78
2022-08-18T02:37:04.578Z,92.00
2022-08-18T02:39:35.728Z,91.82
2022-08-18T02:42:05.746Z,91.92
2022-08-18T02:44:34.278Z,92.33
2022-08-18T02:47:02.970Z,92.65
2022-08-18T02:49:30.942Z,92.89
2022-08-18T02:51:59.627Z,93.34
2022-08-18T02:54:27.665Z,93.47
2022-08-18T02:56:57.226Z,93.25
2022-08-18T02:59:31.796Z,93.15
2022-08-18T03:02:00.537Z,93.18
2022-08-18T03:04:31.181Z,93.70
2022-08-18T03:07:02.531Z,93.51
2022-08-18T03:09:31.028Z,93.41
2022-08-18T03:12:00.089Z,93.47
2022-08-18T03:14:30.010Z,93.60
2022-08-18T03:16:58.550Z,93.79
2022-08-18T03:19:28.667Z,94.17
2022-08-18T03:21:59.354Z,94.04
2022-08-18T03:24:31.697Z,93.35
2022-08-18T03:27:01.783Z,93.37
2022-08-18T03:29:32.972Z,93.74
2022-08-18T03:32:01.805Z,93.72
2022-08-18T03:34:30.113Z,94.32
2022-08-18T03:36:58.583Z,94.67
2022-08-18T03:39:27.874Z,94.65
2022-08-18T03:42:01.032Z,94.67
2022-08-18T03:44:34.556Z,95.21
2022-08-18T03:47:03.995Z,95.70
2022-08-18T03:49:33.875Z,96.53
2022-08-18T03:52:02.481Z,97.04
2022-08-18T03:54:34.005Z,97.15
2022-08-18T03:57:02.437Z,98.02
2022-08-18T03:59:33.406Z,97.30
2022-08-18T04:02:04.598Z,97.06
2022-08-18T04:04:32.664Z,97.17
2022-08-18T04:07:05.645Z,97.22
2022-08-18T04:09:36.157Z,97.18
2022-08-18T04:12:15.294Z,97.63
2022-08-18T04:14:49.718Z,97.45
2022-08-18T04:17:20.462Z,97.38
2022-08-18T04:19:48.645Z,97.26
2022-08-18T04:22:17.110Z,97.04
2022-08-18T04:24:45.857Z,96.97
2022-08-18T04:27:14.050Z,96.17
2022-08-18T04:29:42.082Z,96.23
2022-08-18T04:32:11.530Z,96.68
2022-08-18T04:34:39.553Z,97.01
2022-08-18T04:37:09.863Z,96.92
2022-08-18T04:39:38.519Z,96.75
2022-08-18T04:42:06.732Z,96.27
2022-08-18T04:44:35.103Z,95.52
2022-08-18T04:47:03.526Z,95.08
2022-08-18T04:49:34.100Z,94.40
2022-08-18T04:52:37.160Z,93.04
2022-08-18T04:55:08.766Z,92.54
2022-08-18T04:57:36.976Z,92.33
2022-08-18T05:00:07.533Z,90.61
2022-08-18T05:02:35.960Z,89.59
2022-08-18T05:05:06.141Z,89.25
2022-08-18T05:07:34.642Z,85.00
2022-08-18T05:10:02.871Z,83.65
2022-08-18T05:12:30.870Z,84.06
2022-08-18T05:14:58.874Z,83.24
2022-08-18T05:17:30.543Z,81.32
2022-08-18T05:20:01.420Z,79.17
2022-08-18T05:22:32.046Z,77.31
2022-08-18T05:25:01.141Z,75.63
2022-08-18T05:27:34.114Z,74.60
2022-08-18T05:30:02.547Z,73.59
2022-08-18T05:32:46.929Z,72.25
2022-08-18T05:35:21.417Z,71.84
2022-08-18T05:38:04.273Z,69.08
2022-08-18T05:40:32.341Z,67.51
2022-08-18T05:43:01.917Z,66.56
2022-08-18T05:45:30.177Z,65.98
2022-08-18T05:48:00.202Z,65.42
2022-08-18T05:50:31.067Z,63.52
2022-08-18T05:53:05.495Z,61.53
2022-08-18T05:56:04.557Z,62.54
2022-08-18T05:58:39.657Z,59.92
2022-08-18T06:01:13.341Z,60.75
2022-08-18T06:03:49.003Z,58.73
2022-08-18T06:06:21.519Z,58.53
2022-08-18T06:08:56.986Z,57.11
2022-08-18T06:11:25.942Z,58.86
2022-08-18T06:13:59.361Z,59.04
2022-08-18T06:16:44.481Z,57.62
2022-08-18T06:19:25.005Z,57.50
2022-08-18T06:22:03.599Z,54.86
2022-08-18T06:24:40.070Z,55.11
2022-08-18T06:27:16.301Z,56.17
2022-08-18T06:29:57.966Z,54.71
2022-08-18T06:32:36.484Z,53.68
2022-08-18T06:35:19.347Z,54.70
2022-08-18T06:38:14.135Z,55.20
2022-08-18T06:40:43.642Z,54.67
2022-08-18T06:43:17.279Z,53.80
2022-08-18T06:45:52.277Z,54.67
2022-08-18T06:48:33.233Z,52.95
2022-08-18T06:51:04.232Z,52.69
2022-08-18T06:53:56.470Z,51.78
2022-08-18T06:56:29.724Z,52.17
2022-08-18T06:59:16.041Z,49.01
2022-08-18T07:01:45.946Z,51.01
2022-08-18T07:04:33.294Z,50.35
2022-08-18T07:07:14.869Z,51.76
2022-08-18T07:09:42.979Z,51.37
2022-08-18T07:12:19.722Z,50.91
2022-08-18T07:14:50.566Z,51.82
2022-08-18T07:17:51.465Z,50.53
2022-08-18T07:20:22.199Z,52.78
2022-08-18T07:22:55.854Z,49.92
2022-08-18T07:25:28.430Z,50.41
2022-08-18T07:27:58.071Z,48.47
2022-08-18T07:30:36.115Z,49.05
2022-08-18T07:33:15.105Z,50.21
2022-08-18T07:35:50.143Z,48.74
2022-08-18T07:38:41.918Z,48.97
2022-08-18T07:41:16.812Z,46.50
2022-08-18T07:43:59.482Z,48.18
2022-08-18T07:46:37.446Z,47.19
2022-08-18T07:49:07.120Z,45.86
2022-08-18T07:51:47.739Z,47.26
2022-08-18T07:54:50.847Z,44.16
2022-08-18T07:57:30.681Z,44.16
2022-08-18T08:00:18.652Z,42.89
2022-08-18T08:02:59.014Z,44.10
2022-08-18T08:05:41.497Z,45.08
2022-08-18T08:08:25.009Z,44.30
2022-08-18T08:11:07.907Z,45.84
2022-08-18T08:13:57.598Z,46.56
2022-08-18T08:16:39.034Z,44.89
2022-08-18T08:19:49.368Z,44.49
2022-08-18T08:22:20.300Z,44.21
2022-08-18T08:25:00.226Z,44.01
2022-08-18T08:27:37.664Z,44.79
2022-08-18T08:30:08.965Z,44.47
2022-08-18T08:32:45.332Z,44.64
2022-08-18T08:35:49.176Z,45.33
2022-08-18T08:38:38.700Z,44.61
2022-08-18T08:41:04.639Z,47.30
2022-08-18T08:43:38.364Z,46.23
2022-08-18T08:46:13.409Z,48.27
2022-08-18T08:48:48.614Z,47.69
2022-08-18T08:51:36.763Z,46.49
2022-08-18T08:54:10.409Z,46.73
2022-08-18T08:56:44.248Z,47.43
2022-08-18T08:59:15.983Z,47.25
2022-08-18T09:01:55.944Z,47.40
2022-08-18T09:05:07.499Z,47.90
2022-08-18T09:07:54.618Z,46.38
2022-08-18T09:10:39.700Z,46.77
2022-08-18T09:13:29.794Z,46.37
2022-08-18T09:16:14.112Z,46.85
2022-08-18T09:19:08.689Z,45.66
2022-08-18T09:21:46.447Z,43.30
2022-08-18T09:24:23.976Z,40.92
2022-08-18T09:26:54.572Z,40.50
2022-08-18T09:29:27.591Z,41.46
2022-08-18T09:32:37.962Z,39.94
2022-08-18T09:35:33.363Z,38.76
2022-08-18T09:38:29.760Z,38.98
2022-08-18T09:41:23.226Z,38.42
2022-08-18T09:44:11.846Z,36.02
2022-08-18T09:49:53.709Z,35.39
2022-08-18T09:50:37.285Z,34.01
2022-08-18T09:52:49.674Z,35.47
2022-08-18T09:56:01.639Z,37.19
2022-08-18T09:58:55.194Z,36.22
2022-08-18T10:01:34.642Z,34.81
2022-08-18T10:04:35.477Z,33.88
2022-08-18T10:11:02.239Z,34.81
2022-08-18T10:13:25.040Z,35.53
2022-08-18T10:16:11.337Z,35.12
2022-08-18T10:18:56.095Z,37.86
2022-08-18T10:21:31.266Z,36.03
2022-08-18T10:24:34.968Z,35.38
2022-08-18T10:27:04.084Z,36.19
2022-08-18T10:29:52.326Z,37.03
2022-08-18T10:32:37.182Z,35.21
2022-08-18T10:35:06.579Z,34.98
2022-08-18T10:37:40.220Z,35.50
2022-08-18T10:40:21.138Z,35.95
2022-08-18T10:42:55.196Z,34.06
2022-08-18T10:45:30.654Z,34.87
2022-08-18T10:48:16.740Z,34.14
2022-08-18T10:50:53.006Z,34.81
2022-08-18T10:53:38.804Z,35.16
2022-08-18T10:56:26.525Z,33.55
2022-08-18T10:59:13.844Z,34.11
2022-08-18T11:02:20.378Z,35.20
2022-08-18T11:04:58.651Z,33.05
2022-08-18T11:07:30.901Z,34.53
2022-08-18T11:13:10.144Z,34.02
2022-08-18T11:15:52.597Z,34.26
2022-08-18T11:18:32.859Z,34.80
2022-08-18T11:21:37.631Z,35.70
2022-08-18T11:24:16.936Z,34.78
2022-08-18T11:26:53.185Z,34.64
2022-08-18T11:29:32.643Z,36.61
2022-08-18T11:32:11.077Z,34.02
2022-08-18T11:37:52.132Z,34.14
2022-08-18T11:43:21.205Z,33.19
2022-08-18T11:45:54.305Z,33.33
2022-08-18T11:51:25.457Z,33.79
2022-08-18T11:54:00.027Z,33.96
2022-08-18T11:56:32.494Z,33.70
2022-08-18T11:59:08.424Z,34.24
2022-08-18T12:01:48.831Z,34.32
2022-08-18T12:04:28.960Z,33.76
2022-08-18T12:07:02.147Z,32.31
2022-08-18T12:12:35.871Z,33.22
2022-08-18T12:18:26.112Z,33.02
2022-08-18T12:20:58.016Z,32.89
2022-08-18T12:23:26.408Z,32.54
2022-08-18T12:25:55.853Z,32.17
2022-08-18T12:28:28.417Z,29.18
2022-08-18T12:30:57.605Z,32.77
2022-08-18T12:36:16.211Z,32.73
2022-08-18T12:38:52.134Z,32.19
2022-08-18T12:41:26.469Z,31.97
2022-08-18T12:43:58.443Z,34.17
2022-08-18T12:46:28.384Z,32.84
2022-08-18T12:48:56.902Z,34.05
2022-08-18T12:54:13.803Z,32.78
2022-08-18T12:56:44.359Z,32.78
2022-08-18T12:59:12.570Z,34.44
2022-08-18T13:01:42.400Z,35.97
2022-08-18T13:07:04.785Z,36.20
2022-08-18T13:09:52.727Z,33.43
2022-08-18T13:12:26.213Z,33.42
2022-08-18T13:14:55.793Z,33.41
2022-08-18T13:17:30.034Z,35.84
2022-08-18T13:20:01.591Z,35.29
2022-08-18T13:22:32.779Z,34.56
2022-08-18T13:25:01.871Z,34.58
2022-08-18T13:27:35.277Z,31.65
2022-08-18T13:30:16.682Z,33.00
2022-08-18T13:32:58.614Z,35.69
2022-08-18T13:35:29.947Z,34.78
2022-08-18T13:38:15.797Z,34.43
2022-08-18T13:40:49.944Z,35.12
2022-08-18T13:43:28.770Z,35.88
2022-08-18T13:45:57.078Z,35.51
2022-08-18T13:48:25.980Z,35.97
2022-08-18T13:50:56.603Z,36.37
2022-08-18T13:53:27.422Z,36.35
2022-08-18T13:55:58.902Z,36.81
2022-08-18T13:58:30.324Z,37.59
2022-08-18T14:03:48.382Z,37.74
2022-08-18T14:06:22.597Z,38.80
2022-08-18T14:08:52.554Z,39.52
2022-08-18T14:11:21.654Z,39.97
2022-08-18T14:13:51.211Z,40.32
2022-08-18T14:16:20.455Z,39.98
2022-08-18T14:19:10.022Z,39.97
2022-08-18T14:21:59.629Z,40.11
2022-08-18T14:24:48.837Z,39.42
2022-08-18T14:27:17.669Z,39.82
2022-08-18T14:29:49.748Z,38.77
2022-08-18T14:32:29.589Z,39.11
2022-08-18T14:35:00.814Z,38.94
2022-08-18T14:37:29.822Z,40.01
2022-08-18T14:39:58.399Z,39.97
2022-08-18T14:42:41.521Z,40.59
2022-08-18T14:45:26.426Z,40.46
2022-08-18T14:48:00.332Z,40.05
2022-08-18T14:50:28.573Z,40.81
2022-08-18T14:52:57.008Z,40.21
2022-08-18T14:55:27.694Z,39.67
2022-08-18T14:57:59.224Z,40.05
2022-08-18T15:00:30.263Z,39.51
2022-08-18T15:02:59.745Z,39.81
2022-08-18T15:05:32.002Z,40.56
2022-08-18T15:08:04.731Z,41.16
2022-08-18T15:10:34.638Z,40.20
2022-08-18T15:13:03.878Z,41.93
2022-08-18T15:15:42.220Z,41.23
2022-08-18T15:18:22.820Z,40.67
2022-08-18T15:21:10.416Z,41.66
2022-08-18T15:24:19.484Z,42.58
2022-08-18T15:26:51.566Z,42.37
2022-08-18T15:29:22.687Z,42.69
2022-08-18T15:32:02.078Z,42.22
2022-08-18T15:34:47.220Z,43.19
2022-08-18T15:37:20.416Z,43.01
2022-08-18T15:40:02.935Z,42.84
2022-08-18T15:42:31.577Z,43.52
2022-08-18T15:45:11.917Z,42.42
2022-08-18T15:47:43.305Z,43.37
2022-08-18T15:50:21.983Z,43.37
2022-08-18T15:52:56.338Z,43.65
2022-08-18T15:55:26.214Z,43.74
2022-08-18T15:57:58.393Z,44.02
2022-08-18T16:00:28.968Z,44.09
2022-08-18T16:03:01.613Z,44.89
2022-08-18T16:05:35.391Z,44.97
2022-08-18T16:08:05.155Z,45.60
2022-08-18T16:10:39.715Z,45.87
2022-08-18T16:13:10.373Z,47.51
2022-08-18T16:15:40.978Z,49.04
2022-08-18T16:18:11.918Z,49.13
2022-08-18T16:20:41.333Z,50.79
2022-08-18T16:23:10.134Z,50.35
2022-08-18T16:25:39.262Z,49.97
2022-08-18T16:28:07.586Z,51.26
2022-08-18T16:30:36.946Z,51.45
2022-08-18T16:33:08.039Z,51.21
2022-08-18T16:35:38.795Z,51.56
2022-08-18T16:38:08.951Z,51.76
2022-08-18T16:40:38.895Z,52.21
2022-08-18T16:43:07.364Z,51.69
2022-08-18T16:45:37.944Z,53.00
2022-08-18T16:48:08.284Z,52.94
2022-08-18T16:50:39.491Z,54.28
2022-08-18T16:53:08.015Z,55.57
2022-08-18T16:55:36.695Z,56.34
2022-08-18T16:58:24.093Z,57.06
2022-08-18T17:01:12.646Z,55.26
2022-08-18T17:04:04.508Z,55.96
2022-08-18T17:06:47.319Z,58.26
2022-08-18T17:09:16.950Z,58.99
2022-08-18T17:11:48.006Z,59.38
2022-08-18T17:14:22.152Z,59.91
2022-08-18T17:16:54.420Z,60.18
2022-08-18T17:19:23.587Z,60.20
2022-08-18T17:21:53.866Z,60.18
2022-08-18T17:24:32.105Z,60.20
2022-08-18T17:27:20.380Z,60.46
2022-08-18T17:30:04.010Z,60.40
2022-08-18T17:32:49.342Z,60.97
2022-08-18T17:35:26.893Z,60.68
2022-08-18T17:38:02.521Z,60.02
2022-08-18T17:40:35.105Z,63.33
2022-08-18T17:43:03.849Z,61.90
2022-08-18T17:45:36.089Z,60.56
2022-08-18T17:48:10.448Z,60.86
2022-08-18T17:51:00.756Z,61.75
2022-08-18T17:53:33.061Z,59.31
2022-08-18T17:56:06.911Z,58.67
2022-08-18T17:58:40.667Z,58.45
2022-08-18T18:01:09.907Z,56.83
2022-08-18T18:03:38.544Z,55.95
2022-08-18T18:06:12.501Z,55.40
2022-08-18T18:08:56.093Z,55.12
2022-08-18T18:11:28.808Z,55.04
2022-08-18T18:13:57.032Z,53.96
2022-08-18T18:16:30.174Z,53.65
2022-08-18T18:19:00.000Z,54.08
2022-08-18T18:21:53.347Z,53.89
2022-08-18T18:24:24.360Z,53.09
2022-08-18T18:26:53.216Z,53.11
2022-08-18T18:29:29.137Z,53.06
2022-08-18T18:32:03.063Z,52.65
2022-08-18T18:34:39.593Z,52.76
2022-08-18T18:37:25.558Z,52.22
2022-08-18T18:40:00.304Z,52.71
2022-08-18T18:42:30.462Z,52.43
2022-08-18T18:45:01.386Z,52.14
2022-08-18T18:47:45.934Z,51.97
2022-08-18T18:50:22.966Z,51.55
2022-08-18T18:53:01.799Z,51.32
2022-08-18T18:55:36.853Z,51.75
2022-08-18T18:58:15.642Z,51.88
2022-08-18T19:00:53.554Z,51.51
2022-08-18T19:03:27.449Z,51.56
2022-08-18T19:06:11.265Z,51.78
2022-08-18T19:08:46.006Z,52.21
2022-08-18T19:11:21.882Z,52.56
2022-08-18T19:13:55.775Z,52.52
2022-08-18T19:16:29.585Z,51.43
2022-08-18T19:19:38.206Z,52.30
2022-08-18T19:22:04.493Z,51.92
2022-08-18T19:24:40.454Z,52.54
2022-08-18T19:27:23.281Z,51.86
2022-08-18T19:29:52.875Z,51.26
2022-08-18T19:32:26.054Z,51.95
2022-08-18T19:34:55.810Z,53.09
2022-08-18T19:37:32.332Z,52.55
2022-08-18T19:40:05.859Z,52.36
2022-08-18T19:42:42.650Z,52.98
2022-08-18T19:45:24.877Z,53.43
2022-08-18T19:47:58.677Z,53.15
2022-08-18T19:50:34.394Z,53.27
2022-08-18T19:53:14.973Z,53.52
2022-08-18T19:56:03.421Z,55.67
2022-08-18T19:59:15.596Z,57.54
2022-08-18T20:01:56.659Z,58.38
2022-08-18T20:04:43.614Z,58.96
2022-08-18T20:07:52.024Z,59.37
2022-08-18T20:10:44.946Z,57.27
2022-08-18T20:13:33.009Z,57.42
2022-08-18T20:16:28.672Z,57.52
2022-08-18T20:19:43.649Z,58.41
2022-08-18T20:22:28.054Z,60.42
2022-08-18T20:25:05.989Z,61.47
2022-08-18T20:27:39.615Z,66.00
2022-08-18T20:30:33.265Z,70.03
2022-08-18T20:33:19.884Z,70.94
2022-08-18T20:35:53.939Z,67.80
2022-08-18T20:38:35.161Z,67.14
2022-08-18T20:41:31.486Z,67.47
2022-08-18T20:44:09.702Z,68.29
2022-08-18T20:46:44.971Z,68.19
2022-08-18T20:49:30.062Z,68.25
2022-08-18T20:52:06.431Z,68.06
2022-08-18T20:54:58.351Z,67.51
2022-08-18T20:57:34.983Z,68.19
2022-08-18T21:00:14.287Z,67.77
2022-08-18T21:02:48.940Z,67.72
2022-08-18T21:05:27.959Z,67.31
2022-08-18T21:08:04.778Z,68.07
2022-08-18T21:10:34.699Z,68.27
2022-08-18T21:13:05.757Z,68.23
2022-08-18T21:15:37.440Z,68.83
2022-08-18T21:18:08.439Z,68.91
2022-08-18T21:20:37.892Z,68.43
2022-08-18T21:23:10.349Z,69.21
2022-08-18T21:25:41.897Z,68.37
2022-08-18T21:28:09.938Z,68.90
2022-08-18T21:30:38.121Z,69.69
2022-08-18T21:33:20.230Z,68.81
2022-08-18T21:35:49.762Z,69.30
2022-08-18T21:38:26.709Z,69.00
2022-08-18T21:40:59.222Z,69.76
2022-08-18T21:43:42.433Z,69.28
2022-08-18T21:46:24.162Z,69.19
2022-08-18T21:48:54.991Z,69.86
2022-08-18T21:51:27.864Z,69.62
2022-08-18T21:53:56.673Z,69.04
2022-08-18T21:56:29.382Z,69.96
2022-08-18T21:59:10.114Z,70.13
2022-08-18T22:01:48.083Z,69.95
2022-08-18T22:04:25.481Z,68.99
2022-08-18T22:06:57.929Z,69.68
2022-08-18T22:09:46.227Z,69.44
2022-08-18T22:12:47.426Z,69.16
2022-08-18T22:15:18.762Z,70.16
2022-08-18T22:17:59.850Z,70.07
2022-08-18T22:20:47.018Z,70.23
2022-08-18T22:23:55.063Z,71.09
2022-08-18T22:26:27.406Z,71.49
2022-08-18T22:28:59.389Z,71.38
2022-08-18T22:31:29.582Z,71.42
2022-08-18T22:34:01.110Z,69.55
2022-08-18T22:36:34.922Z,70.29
2022-08-18T22:39:05.434Z,70.23
2022-08-18T22:41:37.273Z,70.44
2022-08-18T22:44:05.681Z,72.48
2022-08-18T22:46:34.587Z,71.65
2022-08-18T22:49:03.002Z,71.45
2022-08-18T22:51:33.469Z,71.12
2022-08-18T22:54:01.517Z,70.44
2022-08-18T22:56:35.069Z,71.17
2022-08-18T22:59:13.478Z,71.26
2022-08-18T23:01:45.402Z,71.25
2022-08-18T23:04:13.641Z,71.82
2022-08-18T23:06:42.016Z,72.75
2022-08-18T23:09:10.074Z,72.15
2022-08-18T23:11:39.575Z,72.22
2022-08-18T23:14:07.855Z,72.76
2022-08-18T23:16:36.089Z,72.60
2022-08-18T23:19:04.120Z,72.26
2022-08-18T23:21:34.311Z,73.60
2022-08-18T23:24:04.753Z,74.03
2022-08-18T23:26:34.207Z,74.05
2022-08-18T23:29:06.169Z,74.32
2022-08-18T23:31:34.957Z,74.48
2022-08-18T23:34:03.275Z,74.67
2022-08-18T23:36:32.957Z,75.07
2022-08-18T23:39:01.189Z,75.09
2022-08-18T23:41:29.362Z,76.03
2022-08-18T23:43:57.750Z,76.20
2022-08-18T23:46:29.430Z,76.27
2022-08-18T23:48:59.955Z,76.90
2022-08-18T23:51:32.874Z,77.06
2022-08-18T23:54:04.130Z,77.26
2022-08-18T23:56:33.425Z,77.50
2022-08-18T23:59:02.358Z,77.98
